Time;durP1;ratioP1;P1;durP2;ratioP2;P2;SDS_P1;SDS_P2;PMS_P1;PMS_P2;Temp;Humidity;BMP_temperature;BMP_pressure;BME280_temperature;BME280_humidity;BME280_pressure;Samples;Min_cycle;Max_cycle;Signal;HPM_P1;HPM_P2
2021/07/23 00:01:47;;;;;;;75.53;47.70;;;18.10;99.90;;;;;;5057985;28;20468;-85
2021/07/23 00:04:14;;;;;;;69.03;48.47;;;18.10;99.90;;;;;;5057772;28;20475;-85
2021/07/23 00:06:43;;;;;;;64.77;26.03;;;18.10;99.90;;;;;;5056616;28;20471;-85
2021/07/23 00:09:10;;;;;;;70.67;36.93;;;18.10;99.90;;;;;;5056624;28;20456;-85
2021/07/23 00:11:37;;;;;;;58.90;22.70;;;18.00;99.90;;;;;;5058690;28;20913;-85
2021/07/23 00:14:06;;;;;;;69.93;45.83;;;18.00;99.90;;;;;;5057335;28;20952;-85
2021/07/23 00:16:33;;;;;;;69.83;41.43;;;18.00;99.90;;;;;;5040791;28;20906;-85
2021/07/23 00:19:03;;;;;;;62.83;34.90;;;17.90;99.90;;;;;;5038477;28;20488;-85
2021/07/23 00:21:30;;;;;;;59.67;24.50;;;17.90;99.90;;;;;;5047588;28;20477;-85
2021/07/23 00:23:58;;;;;;;52.70;9.93;;;17.80;99.90;;;;;;5052550;28;20446;-86
2021/07/23 00:26:25;;;;;;;55.57;20.90;;;17.90;99.90;;;;;;5050795;28;20507;-85
2021/07/23 00:28:52;;;;;;;55.27;13.60;;;17.90;99.90;;;;;;5045580;28;20481;-86
2021/07/23 00:31:21;;;;;;;54.50;18.27;;;17.80;99.90;;;;;;5057226;28;20517;-85
2021/07/23 00:33:48;;;;;;;46.77;6.20;;;17.80;99.90;;;;;;5052913;28;20475;-85
2021/07/23 00:36:15;;;;;;;60.47;27.07;;;17.70;99.90;;;;;;5081285;22;20826;-82
2021/07/23 00:38:43;;;;;;;52.20;15.67;;;17.70;99.90;;;;;;5055173;28;21029;-82
2021/07/23 00:41:10;;;;;;;55.17;18.47;;;17.60;99.90;;;;;;5056810;28;20447;-83
2021/07/23 00:43:37;;;;;;;51.20;9.10;;;17.60;99.90;;;;;;5056843;28;20523;-83
2021/07/23 00:46:04;;;;;;;50.47;7.33;;;17.60;99.90;;;;;;5057136;28;20480;-83
2021/07/23 00:48:32;;;;;;;49.00;8.23;;;17.60;99.90;;;;;;5056084;28;20547;-83
2021/07/23 00:50:59;;;;;;;49.77;9.30;;;17.40;99.90;;;;;;5056975;28;20458;-83
2021/07/23 00:53:26;;;;;;;51.07;8.87;;;17.30;99.90;;;;;;5056651;28;20466;-83
2021/07/23 00:55:55;;;;;;;47.00;7.33;;;17.40;99.90;;;;;;5056969;28;20458;-82
2021/07/23 00:58:23;;;;;;;49.03;7.07;;;17.40;99.90;;;;;;5060158;28;20454;-83
2021/07/23 01:00:50;;;;;;;44.10;6.20;;;17.40;99.90;;;;;;5060986;28;20459;-83
2021/07/23 01:03:17;;;;;;;44.97;5.63;;;17.40;99.90;;;;;;5058834;28;20458;-83
2021/07/23 01:05:47;;;;;;;38.90;5.30;;;17.40;99.90;;;;;;5061215;28;20438;-83
2021/07/23 01:08:14;;;;;;;37.83;5.80;;;17.30;99.90;;;;;;5060321;28;20483;-84
2021/07/23 01:10:41;;;;;;;30.97;6.10;;;17.30;99.90;;;;;;5058357;28;20447;-83
2021/07/23 01:13:08;;;;;;;27.57;5.17;;;17.20;99.90;;;;;;5061224;28;20849;-83
2021/07/23 01:15:34;;;;;;;26.67;5.40;;;17.10;99.90;;;;;;5060978;28;20452;-82
2021/07/23 01:18:01;;;;;;;24.10;5.40;;;17.10;99.90;;;;;;5060630;28;20472;-83
2021/07/23 01:20:29;;;;;;;22.83;5.80;;;17.00;99.90;;;;;;5058054;28;20475;-84
2021/07/23 01:22:59;;;;;;;20.83;5.17;;;16.90;99.90;;;;;;5060896;28;20474;-83
2021/07/23 01:25:28;;;;;;;19.43;5.40;;;16.80;99.90;;;;;;5060693;28;20498;-82
2021/07/23 01:27:56;;;;;;;18.60;5.53;;;16.80;99.90;;;;;;5059925;28;21033;-83
2021/07/23 01:30:25;;;;;;;17.60;5.57;;;16.70;99.90;;;;;;5060009;28;20460;-82
2021/07/23 01:32:53;;;;;;;18.07;6.93;;;16.60;99.90;;;;;;5060183;28;20534;-83
2021/07/23 01:35:20;;;;;;;15.63;4.80;;;16.60;99.90;;;;;;5059137;28;20491;-83
2021/07/23 01:37:48;;;;;;;17.97;5.30;;;16.50;99.90;;;;;;5053797;28;20484;-83
2021/07/23 01:40:15;;;;;;;15.97;5.30;;;16.50;99.90;;;;;;5057630;28;20447;-82
2021/07/23 01:42:45;;;;;;;15.33;5.10;;;16.40;99.90;;;;;;5059794;28;20462;-82
2021/07/23 01:45:13;;;;;;;15.53;4.87;;;16.30;99.90;;;;;;5060534;28;20824;-83
2021/07/23 01:47:40;;;;;;;14.50;5.60;;;16.30;99.90;;;;;;5060016;28;20487;-83
2021/07/23 01:50:08;;;;;;;15.20;4.73;;;16.30;99.90;;;;;;5060086;28;20509;-82
2021/07/23 01:52:35;;;;;;;15.30;5.07;;;16.20;99.90;;;;;;5055163;28;20470;-82
2021/07/23 01:55:02;;;;;;;14.67;5.50;;;16.20;99.90;;;;;;5053765;28;20449;-82
2021/07/23 01:57:29;;;;;;;19.37;5.40;;;16.10;99.90;;;;;;5059448;28;20571;-82
2021/07/23 01:59:57;;;;;;;15.27;5.60;;;16.10;99.90;;;;;;5060416;28;21129;-82
2021/07/23 02:02:24;;;;;;;13.67;5.83;;;16.10;99.90;;;;;;5061528;28;20452;-83
2021/07/23 02:04:51;;;;;;;16.17;6.47;;;16.00;99.90;;;;;;5061049;28;20451;-82
2021/07/23 02:07:18;;;;;;;13.87;5.87;;;16.00;99.90;;;;;;5060967;28;20466;-83
2021/07/23 02:09:44;;;;;;;13.47;5.70;;;16.00;99.90;;;;;;5059223;28;20456;-83
2021/07/23 02:12:11;;;;;;;14.00;5.30;;;16.00;99.90;;;;;;5060995;28;20460;-82
2021/07/23 02:14:38;;;;;;;13.73;5.37;;;16.00;99.90;;;;;;5061119;28;20451;-83
2021/07/23 02:17:06;;;;;;;13.90;5.47;;;16.00;99.90;;;;;;5060615;28;20456;-83
2021/07/23 02:19:33;;;;;;;13.87;5.60;;;16.00;99.90;;;;;;5061232;28;20469;-83
2021/07/23 02:22:00;;;;;;;14.37;5.90;;;15.90;99.90;;;;;;5061609;28;20451;-83
2021/07/23 02:24:27;;;;;;;12.70;5.60;;;15.90;99.90;;;;;;5060877;28;20458;-83
2021/07/23 02:26:54;;;;;;;14.30;6.20;;;15.90;99.90;;;;;;5060673;28;20475;-83
2021/07/23 02:29:21;;;;;;;12.40;5.60;;;15.80;99.90;;;;;;5061034;28;20491;-83
2021/07/23 02:31:48;;;;;;;12.63;5.57;;;15.80;99.90;;;;;;5063182;28;20457;-82
2021/07/23 02:34:24;;;;;;;16.77;6.40;;;15.80;99.90;;;;;;5045378;28;20456;-84
2021/07/23 02:36:51;;;;;;;14.90;6.10;;;15.70;99.90;;;;;;5046264;28;20851;-83
2021/07/23 02:39:17;;;;;;;13.30;6.27;;;15.70;99.90;;;;;;5048307;28;20983;-84
2021/07/23 02:41:44;;;;;;;14.60;6.10;;;15.70;99.90;;;;;;5059632;28;20466;-85
2021/07/23 02:44:11;;;;;;;12.90;6.03;;;15.70;99.90;;;;;;5056922;28;20990;-84
2021/07/23 02:46:38;;;;;;;12.83;6.17;;;15.60;99.90;;;;;;5058531;28;20464;-83
2021/07/23 02:49:05;;;;;;;12.70;5.20;;;15.60;99.90;;;;;;5058499;28;20490;-82
2021/07/23 02:51:33;;;;;;;12.87;5.60;;;15.60;99.90;;;;;;5059283;28;20452;-86
2021/07/23 02:54:00;;;;;;;14.60;6.37;;;15.60;99.90;;;;;;5058625;28;20447;-83
2021/07/23 02:56:27;;;;;;;14.40;6.37;;;15.60;99.90;;;;;;5058039;28;20858;-83
2021/07/23 02:58:54;;;;;;;12.50;6.40;;;15.60;99.90;;;;;;5054619;28;20477;-82
2021/07/23 03:01:21;;;;;;;12.23;6.13;;;15.60;99.90;;;;;;5054210;28;20876;-83
2021/07/23 03:03:48;;;;;;;11.70;5.43;;;15.60;99.90;;;;;;5046319;28;20540;-84
2021/07/23 03:06:14;;;;;;;13.93;6.17;;;15.60;99.90;;;;;;5046694;28;21071;-84
2021/07/23 03:08:46;;;;;;;13.40;6.60;;;15.50;99.90;;;;;;5048798;28;20487;-82
2021/07/23 03:11:13;;;;;;;16.63;6.97;;;15.60;99.90;;;;;;5049844;28;20445;-84
2021/07/23 03:13:39;;;;;;;14.10;5.70;;;15.60;99.90;;;;;;5047976;28;20518;-84
2021/07/23 03:16:11;;;;;;;14.13;6.67;;;15.60;99.90;;;;;;5053364;28;20809;-84
2021/07/23 03:18:38;;;;;;;13.27;6.87;;;15.60;99.90;;;;;;5056858;28;20460;-85
2021/07/23 03:21:05;;;;;;;12.50;6.30;;;15.60;99.90;;;;;;5053753;28;20448;-84
2021/07/23 03:23:32;;;;;;;14.30;5.97;;;15.60;99.90;;;;;;5058465;28;20515;-84
2021/07/23 03:26:00;;;;;;;12.80;6.00;;;15.60;99.90;;;;;;5059419;28;20520;-83
2021/07/23 03:28:27;;;;;;;14.53;7.60;;;15.60;99.90;;;;;;5054719;28;20475;-85
2021/07/23 03:30:54;;;;;;;12.70;6.60;;;15.60;99.90;;;;;;5052718;28;20551;-83
2021/07/23 03:33:20;;;;;;;14.70;6.17;;;15.60;99.90;;;;;;5067195;28;20458;-83
2021/07/23 03:35:47;;;;;;;15.73;6.63;;;15.50;99.90;;;;;;5064698;28;20551;-82
2021/07/23 03:38:14;;;;;;;13.93;6.43;;;15.50;99.90;;;;;;5069353;28;20463;-82
2021/07/23 03:40:41;;;;;;;12.07;5.63;;;15.50;99.90;;;;;;5068235;28;20468;-81
2021/07/23 03:43:09;;;;;;;12.63;6.50;;;15.50;99.90;;;;;;5069166;28;20468;-83
2021/07/23 03:45:36;;;;;;;15.87;6.47;;;15.40;99.90;;;;;;5067913;28;20466;-83
2021/07/23 03:48:03;;;;;;;13.17;6.53;;;15.40;99.90;;;;;;5068227;28;20493;-83
2021/07/23 03:50:29;;;;;;;14.00;6.63;;;15.40;99.90;;;;;;5066286;28;20453;-81
2021/07/23 03:52:56;;;;;;;15.50;7.33;;;15.30;99.90;;;;;;5069208;28;20515;-82
2021/07/23 03:55:23;;;;;;;12.70;7.27;;;15.30;99.90;;;;;;5069303;28;20917;-82
2021/07/23 03:57:50;;;;;;;15.50;7.40;;;15.30;99.90;;;;;;5069329;28;20487;-83
2021/07/23 04:00:19;;;;;;;15.50;7.37;;;15.30;99.90;;;;;;5063963;28;20467;-83
2021/07/23 04:02:46;;;;;;;16.37;6.57;;;15.30;99.90;;;;;;5069675;28;20474;-82
2021/07/23 04:05:13;;;;;;;15.13;7.70;;;15.30;99.90;;;;;;5068071;28;20487;-82
2021/07/23 04:07:40;;;;;;;14.20;7.70;;;15.30;99.90;;;;;;5064894;28;20555;-82
2021/07/23 04:10:08;;;;;;;13.90;6.93;;;15.30;99.90;;;;;;5065054;28;20485;-83
2021/07/23 04:12:34;;;;;;;15.53;7.00;;;15.30;99.90;;;;;;5079558;28;20453;-83
2021/07/23 04:15:04;;;;;;;12.30;7.20;;;15.30;99.90;;;;;;5079025;28;20551;-83
2021/07/23 04:17:32;;;;;;;12.37;6.43;;;15.30;99.90;;;;;;5058251;28;20483;-83
2021/07/23 04:19:59;;;;;;;14.47;7.63;;;15.30;99.90;;;;;;5056932;28;20960;-83
2021/07/23 04:22:26;;;;;;;15.97;7.03;;;15.40;99.90;;;;;;5057964;28;20454;-83
2021/07/23 04:24:53;;;;;;;15.90;7.90;;;15.40;99.90;;;;;;5055862;28;20479;-83
2021/07/23 04:27:19;;;;;;;14.47;7.00;;;15.40;99.90;;;;;;5057158;28;20553;-83
2021/07/23 04:29:47;;;;;;;19.20;7.40;;;15.50;99.90;;;;;;5053872;28;20477;-84
2021/07/23 04:32:14;;;;;;;13.13;7.07;;;15.50;99.90;;;;;;5050996;28;20454;-84
2021/07/23 04:34:42;;;;;;;12.60;6.77;;;15.50;99.90;;;;;;5068735;28;20464;-82
2021/07/23 04:37:09;;;;;;;12.83;6.90;;;15.60;99.90;;;;;;5061975;28;20704;-84
2021/07/23 04:39:36;;;;;;;15.37;7.83;;;15.60;99.90;;;;;;5078524;28;20548;-84
2021/07/23 04:42:05;;;;;;;17.10;7.67;;;15.60;99.90;;;;;;5043824;28;20456;-83
2021/07/23 04:44:32;;;;;;;11.80;6.90;;;15.60;99.90;;;;;;5036455;28;20488;-84
2021/07/23 04:47:00;;;;;;;14.93;7.77;;;15.70;99.90;;;;;;5049234;28;20643;-85
2021/07/23 04:49:27;;;;;;;17.00;7.50;;;15.70;99.90;;;;;;5035502;28;20492;-84
2021/07/23 04:51:55;;;;;;;12.30;6.43;;;15.80;99.90;;;;;;5035547;28;20453;-83
2021/07/23 04:54:22;;;;;;;13.43;7.63;;;15.80;99.90;;;;;;5035048;28;20824;-84
2021/07/23 04:56:52;;;;;;;12.33;7.43;;;15.80;99.90;;;;;;5036592;28;20555;-84
2021/07/23 04:59:19;;;;;;;13.63;6.70;;;15.90;99.90;;;;;;5035544;28;20452;-83
2021/07/23 05:01:45;;;;;;;13.00;7.60;;;15.90;99.90;;;;;;5035591;28;20480;-84
2021/07/23 05:04:13;;;;;;;13.63;7.17;;;15.90;99.90;;;;;;5034374;28;20439;-84
2021/07/23 05:06:43;;;;;;;20.00;7.10;;;15.90;99.90;;;;;;5042826;28;20864;-84
2021/07/23 05:09:12;;;;;;;15.63;8.00;;;15.90;99.90;;;;;;5044115;28;20484;-84
2021/07/23 05:11:39;;;;;;;16.80;8.00;;;16.00;99.90;;;;;;5035901;28;20475;-84
2021/07/23 05:14:07;;;;;;;14.33;7.50;;;16.00;99.90;;;;;;5037139;28;20453;-84
2021/07/23 05:16:34;;;;;;;16.23;8.10;;;16.00;99.90;;;;;;5037362;28;20483;-84
2021/07/23 05:19:02;;;;;;;14.53;7.47;;;16.00;99.90;;;;;;5036689;28;20441;-84
2021/07/23 05:21:30;;;;;;;15.20;7.80;;;16.10;99.90;;;;;;5038323;28;20517;-84
2021/07/23 05:24:03;;;;;;;15.20;7.90;;;16.00;99.90;;;;;;5038973;28;20525;-85
2021/07/23 05:26:34;;;;;;;15.07;7.90;;;16.10;99.90;;;;;;5034647;28;20477;-84
2021/07/23 05:29:01;;;;;;;17.07;7.57;;;16.10;99.90;;;;;;5033788;28;20484;-83
2021/07/23 05:31:29;;;;;;;14.17;7.93;;;16.20;99.90;;;;;;5034630;28;20483;-84
2021/07/23 05:33:57;;;;;;;16.03;8.00;;;16.20;99.90;;;;;;5034029;28;20560;-83
2021/07/23 05:36:25;;;;;;;18.70;7.33;;;16.30;99.90;;;;;;5033327;28;20508;-84
2021/07/23 05:38:53;;;;;;;15.47;7.33;;;16.30;99.90;;;;;;5033294;28;20575;-84
2021/07/23 05:41:21;;;;;;;16.77;7.67;;;16.40;99.90;;;;;;5034848;28;20491;-85
2021/07/23 05:43:53;;;;;;;16.00;8.70;;;16.50;99.90;;;;;;5037828;28;20938;-85
2021/07/23 05:46:20;;;;;;;13.83;6.80;;;16.50;99.90;;;;;;5040094;28;20480;-84
2021/07/23 05:48:47;;;;;;;16.03;7.90;;;16.40;99.90;;;;;;5037016;28;20567;-83
2021/07/23 05:51:13;;;;;;;15.90;7.50;;;16.60;99.90;;;;;;5036526;28;20448;-84
2021/07/23 05:53:41;;;;;;;13.67;6.77;;;16.50;99.90;;;;;;5036200;28;20456;-84
2021/07/23 05:56:08;;;;;;;16.00;7.10;;;16.60;99.90;;;;;;5036453;28;20480;-85
2021/07/23 05:58:35;;;;;;;13.77;7.73;;;16.60;99.90;;;;;;5035385;28;20540;-84
2021/07/23 06:01:05;;;;;;;15.90;7.83;;;16.60;99.90;;;;;;5040813;28;20456;-84
2021/07/23 06:03:33;;;;;;;13.30;6.90;;;16.70;99.90;;;;;;5052689;28;20763;-84
2021/07/23 06:06:01;;;;;;;16.10;8.20;;;16.80;99.90;;;;;;5055895;28;20929;-84
2021/07/23 06:08:28;;;;;;;21.03;7.60;;;16.90;99.90;;;;;;5056050;28;20471;-84
2021/07/23 06:10:55;;;;;;;13.80;7.20;;;17.00;99.90;;;;;;5065418;28;20437;-84
2021/07/23 06:13:23;;;;;;;15.70;7.90;;;17.00;99.90;;;;;;5077088;28;20479;-85
2021/07/23 06:15:50;;;;;;;16.07;7.87;;;17.10;99.90;;;;;;5073474;28;20959;-85
2021/07/23 06:18:19;;;;;;;13.53;6.90;;;17.10;99.90;;;;;;5076849;28;20484;-84
2021/07/23 06:20:46;;;;;;;16.30;7.40;;;17.10;99.90;;;;;;5054542;28;21035;-85
2021/07/23 06:23:13;;;;;;;16.70;7.30;;;17.10;99.90;;;;;;5056463;28;20518;-85
2021/07/23 06:25:40;;;;;;;15.63;7.10;;;17.20;99.90;;;;;;5055443;28;20506;-85
2021/07/23 06:28:09;;;;;;;15.13;7.13;;;17.30;99.90;;;;;;5054242;28;20484;-84
2021/07/23 06:30:36;;;;;;;14.10;7.03;;;17.40;99.90;;;;;;5054075;28;20567;-85
2021/07/23 06:33:04;;;;;;;19.30;7.43;;;17.40;99.90;;;;;;5055296;28;20546;-85
2021/07/23 06:35:33;;;;;;;18.50;7.40;;;17.50;99.90;;;;;;5055511;28;20463;-85
2021/07/23 06:38:01;;;;;;;14.93;7.77;;;17.60;99.90;;;;;;5057514;28;20498;-86
2021/07/23 06:43:23;;;;;;;15.10;6.90;;;17.60;99.90;;;;;;5736424;22;20502;-85
2021/07/23 06:45:53;;;;;;;15.30;7.77;;;17.70;99.90;;;;;;5089665;28;20494;-86
2021/07/23 06:48:20;;;;;;;18.20;8.37;;;17.80;99.90;;;;;;5077302;28;21159;-87
2021/07/23 06:50:50;;;;;;;16.03;8.20;;;17.80;99.90;;;;;;5082304;28;20496;-86
2021/07/23 06:53:16;;;;;;;17.67;7.30;;;17.70;99.90;;;;;;5089212;28;20458;-86
2021/07/23 06:55:43;;;;;;;14.50;6.00;;;17.80;99.90;;;;;;5099697;28;20946;-86
2021/07/23 06:58:10;;;;;;;14.73;7.40;;;18.00;99.90;;;;;;5099278;28;20454;-87
2021/07/23 07:00:41;;;;;;;15.60;7.53;;;18.10;99.90;;;;;;5099136;28;20473;-86
2021/07/23 07:03:10;;;;;;;13.93;6.80;;;18.10;99.90;;;;;;5099841;28;20461;-86
2021/07/23 07:05:37;;;;;;;15.23;7.23;;;18.20;99.90;;;;;;5099581;28;20491;-87
2021/07/23 07:08:06;;;;;;;12.80;7.13;;;18.20;99.90;;;;;;5100466;28;20513;-86
2021/07/23 07:10:33;;;;;;;13.60;6.50;;;18.20;99.90;;;;;;5103220;28;20492;-86
2021/07/23 07:13:04;;;;;;;14.00;6.20;;;18.30;99.90;;;;;;5110017;28;20434;-87
2021/07/23 07:15:30;;;;;;;13.07;6.30;;;18.40;99.90;;;;;;5111328;28;20450;-87
2021/07/23 07:17:58;;;;;;;13.60;6.57;;;18.40;99.90;;;;;;5104392;28;20450;-86
2021/07/23 07:20:25;;;;;;;13.30;5.97;;;18.60;99.90;;;;;;5098231;28;20458;-86
2021/07/23 07:22:52;;;;;;;13.70;5.90;;;18.70;99.90;;;;;;5075424;28;20443;-87
2021/07/23 07:25:21;;;;;;;17.20;7.03;;;18.80;99.90;;;;;;5094375;28;20446;-86
2021/07/23 07:27:48;;;;;;;16.00;7.53;;;18.90;99.90;;;;;;5093937;28;21134;-87
2021/07/23 07:30:15;;;;;;;15.00;6.50;;;18.90;99.90;;;;;;5094760;28;20489;-86
2021/07/23 07:32:42;;;;;;;13.33;6.87;;;18.90;99.90;;;;;;5094995;28;20450;-86
2021/07/23 07:35:10;;;;;;;15.43;7.10;;;19.10;99.90;;;;;;5096833;28;20450;-87
2021/07/23 07:37:36;;;;;;;13.80;6.10;;;19.10;99.90;;;;;;5100551;28;20565;-87
2021/07/23 07:40:04;;;;;;;18.90;6.50;;;19.20;99.90;;;;;;5072856;28;20443;-88
2021/07/23 07:42:32;;;;;;;15.60;7.30;;;19.30;99.90;;;;;;5078239;28;20462;-87
2021/07/23 07:44:59;;;;;;;16.00;6.83;;;19.40;99.90;;;;;;5094329;28;20450;-87
2021/07/23 07:47:26;;;;;;;16.33;6.30;;;19.50;99.90;;;;;;5093847;28;20454;-88
2021/07/23 07:49:53;;;;;;;14.83;6.30;;;19.60;99.90;;;;;;5095564;28;20480;-87
2021/07/23 07:53:01;;;;;;;16.10;6.30;;;19.80;99.90;;;;;;5091419;28;20478;-89
2021/07/23 07:55:35;;;;;;;15.17;6.53;;;19.80;99.90;;;;;;5082350;28;20469;-88
2021/07/23 07:58:19;;;;;;;19.00;6.80;;;19.90;99.90;;;;;;5082236;28;20443;-89
2021/07/23 08:04:23;;;;;;;14.80;6.60;;;20.20;99.90;;;;;;5060393;28;20451;-88
2021/07/23 08:10:27;;;;;;;15.10;5.90;;;20.50;99.90;;;;;;5044680;28;20558;-88
2021/07/23 08:13:26;;;;;;;17.57;5.43;;;20.60;99.90;;;;;;5077110;28;20466;-87
2021/07/23 08:16:12;;;;;;;16.20;5.50;;;20.70;99.90;;;;;;5095221;28;20446;-88
2021/07/23 08:22:05;;;;;;;15.17;6.70;;;21.00;99.90;;;;;;5068398;28;20470;-88
2021/07/23 08:27:49;;;;;;;20.80;7.10;;;21.30;99.90;;;;;;5092636;28;20431;-88
2021/07/23 08:31:01;;;;;;;19.80;7.37;;;21.50;99.90;;;;;;5085986;28;20478;-88
2021/07/23 08:33:45;;;;;;;17.67;6.23;;;21.60;99.90;;;;;;5002076;28;20454;-88
2021/07/23 08:36:14;;;;;;;20.33;5.87;;;21.60;99.90;;;;;;5111196;28;20478;-88
2021/07/23 08:38:47;;;;;;;15.90;5.47;;;21.80;99.90;;;;;;5105996;28;20436;-88
2021/07/23 08:41:22;;;;;;;16.77;7.00;;;22.00;99.90;;;;;;5097917;28;20450;-88
2021/07/23 08:43:55;;;;;;;17.13;6.57;;;22.10;99.90;;;;;;5084240;28;20458;-88
2021/07/23 08:46:28;;;;;;;14.40;6.17;;;22.40;99.90;;;;;;5089499;28;20822;-88
2021/07/23 08:49:06;;;;;;;17.50;6.40;;;22.50;99.90;;;;;;5091475;28;20434;-88
2021/07/23 08:51:43;;;;;;;18.10;6.27;;;22.60;99.90;;;;;;5092444;28;20481;-86
2021/07/23 08:54:16;;;;;;;18.37;6.20;;;22.70;99.90;;;;;;5084199;28;20545;-88
2021/07/23 08:56:53;;;;;;;20.30;6.47;;;22.70;99.90;;;;;;5089122;28;20470;-88
2021/07/23 08:59:20;;;;;;;19.87;7.00;;;22.90;99.90;;;;;;5072108;28;20467;-88
2021/07/23 09:02:15;;;;;;;19.70;6.83;;;23.10;99.90;;;;;;5089040;28;20482;-88
2021/07/23 09:05:19;;;;;;;19.93;6.83;;;23.20;99.90;;;;;;5089701;28;20457;-88
2021/07/23 09:07:55;;;;;;;26.43;7.00;;;23.30;99.90;;;;;;5087647;28;20454;-88
2021/07/23 09:10:38;;;;;;;;;;;;;;;;;;;;;
2021/07/23 09:13:13;;;;;;;21.50;6.90;;;23.40;99.90;;;;;;5092573;28;20453;-88
2021/07/23 09:15:50;;;;;;;24.60;6.40;;;23.60;99.90;;;;;;5091266;28;20464;-88
2021/07/23 09:18:30;;;;;;;20.90;6.10;;;23.70;99.90;;;;;;5084223;28;20480;-89
2021/07/23 09:21:20;;;;;;;21.57;5.77;;;23.80;99.90;;;;;;5084866;28;20467;-88
2021/07/23 09:23:48;;;;;;;21.77;5.90;;;23.90;99.90;;;;;;5090635;28;20500;-89
2021/07/23 09:26:20;;;;;;;20.67;5.40;;;24.00;99.90;;;;;;5091336;28;20485;-90
2021/07/23 09:29:14;;;;;;;20.70;5.33;;;23.80;99.90;;;;;;5087555;28;21126;-87
2021/07/23 09:32:33;;;;;;;;;;;;;;;;;;;;;
2021/07/23 09:38:38;;;;;;;169.07;155.57;;;24.20;99.90;;;;;;5034162;28;20436;-90
2021/07/23 09:41:32;;;;;;;84.50;62.60;;;24.30;99.90;;;;;;5081118;28;20537;-89
2021/07/23 09:44:07;;;;;;;67.03;29.20;;;24.20;99.90;;;;;;5089115;28;20462;-88
2021/07/23 09:46:48;;;;;;;84.87;58.93;;;24.50;99.90;;;;;;5079924;28;20450;-89
2021/07/23 09:52:34;;;;;;;300.93;282.13;;;24.80;99.90;;;;;;5084955;28;20451;-88
2021/07/23 09:55:35;;;;;;;1467.43;791.97;;;25.00;99.90;;;;;;5087283;28;20867;-88
2021/07/23 09:59:02;;;;;;;192.77;176.90;;;25.10;99.90;;;;;;5073840;28;20454;-86
2021/07/23 10:11:56;;;;;;;1386.37;714.40;;;25.50;99.90;;;;;;4946684;29;20492;-87
2021/07/23 10:24:05;;;;;;;277.77;260.13;;;25.50;99.90;;;;;;4181217;26;20489;-86
2021/07/23 10:27:20;;;;;;;1999.90;999.90;;;25.90;99.90;;;;;;5026641;28;20425;-86
2021/07/23 10:29:59;;;;;;;1999.90;999.90;;;26.30;99.90;;;;;;4977363;28;20495;-86
2021/07/23 10:35:53;;;;;;;1999.90;999.90;;;26.60;99.90;;;;;;5035461;28;20453;-89
2021/07/23 10:38:22;;;;;;;1999.90;999.90;;;26.60;99.90;;;;;;5039608;28;20552;-87
2021/07/23 10:41:17;;;;;;;1999.90;999.90;;;26.70;99.90;;;;;;5036130;28;21000;-87
2021/07/23 10:43:44;;;;;;;1999.90;999.90;;;26.90;99.90;;;;;;5035779;28;20505;-86
2021/07/23 10:46:54;;;;;;;1999.90;999.90;;;27.00;99.90;;;;;;5038413;28;20528;-86
2021/07/23 10:50:00;;;;;;;1999.90;999.90;;;27.20;99.90;;;;;;5016445;28;20471;-86
2021/07/23 10:52:36;;;;;;;1999.90;999.90;;;27.40;99.90;;;;;;5029191;28;20559;-86
2021/07/23 10:55:19;;;;;;;1999.90;999.90;;;27.50;99.90;;;;;;5036818;28;20444;-87
2021/07/23 10:58:28;;;;;;;1999.90;999.90;;;27.10;99.90;;;;;;5032069;28;20445;-87
2021/07/23 11:01:01;;;;;;;1999.90;999.90;;;27.30;99.90;;;;;;5018407;28;20536;-87
2021/07/23 11:07:06;;;;;;;1999.90;999.90;;;27.60;99.90;;;;;;5036007;28;20444;-87
2021/07/23 11:12:41;;;;;;;1999.90;999.90;;;27.80;99.90;;;;;;5039432;28;20530;-88
2021/07/23 11:15:18;;;;;;;1999.90;999.90;;;27.80;99.90;;;;;;5041959;28;20433;-89
2021/07/23 11:18:02;;;;;;;1999.90;999.90;;;27.70;99.90;;;;;;5040271;28;20439;-88
2021/07/23 11:20:38;;;;;;;1999.90;999.90;;;27.90;99.90;;;;;;5040180;28;20437;-86
2021/07/23 11:23:06;;;;;;;1999.90;999.90;;;28.00;99.90;;;;;;5053892;28;20460;-88
2021/07/23 11:25:56;;;;;;;1999.90;999.90;;;28.00;99.90;;;;;;5052838;28;20441;-86
2021/07/23 11:28:26;;;;;;;1999.90;999.90;;;27.90;99.90;;;;;;5034783;28;20503;-88
2021/07/23 11:30:54;;;;;;;1999.90;999.90;;;27.80;99.90;;;;;;5039549;28;20489;-88
2021/07/23 11:33:32;;;;;;;1999.90;999.90;;;28.00;99.90;;;;;;5030236;28;20458;-88
2021/07/23 11:36:05;;;;;;;1999.90;999.90;;;28.20;99.90;;;;;;5037301;28;20820;-88
2021/07/23 11:38:34;;;;;;;1999.90;999.90;;;28.30;99.90;;;;;;5030167;28;20953;-88
2021/07/23 11:41:07;;;;;;;1999.90;999.90;;;28.30;99.90;;;;;;5021271;28;20465;-87
2021/07/23 11:43:34;;;;;;;122.03;93.63;;;28.40;99.90;;;;;;5028852;28;20454;-87
2021/07/23 11:46:01;;;;;;;1999.90;999.90;;;28.40;99.90;;;;;;5028018;28;20455;-87
2021/07/23 11:48:27;;;;;;;1999.90;999.90;;;28.10;99.90;;;;;;5036270;28;20452;-87
2021/07/23 11:50:55;;;;;;;1999.90;999.90;;;28.20;99.90;;;;;;5025985;28;20480;-87
2021/07/23 11:53:25;;;;;;;1999.90;999.90;;;28.40;99.90;;;;;;5039053;28;20448;-87
2021/07/23 11:55:53;;;;;;;1999.90;999.90;;;28.60;99.90;;;;;;5037647;28;20512;-87
2021/07/23 11:58:27;;;;;;;111.27;73.27;;;28.80;99.90;;;;;;5035809;28;20456;-88
2021/07/23 12:00:55;;;;;;;123.27;109.83;;;28.80;99.90;;;;;;5036421;28;20539;-87
2021/07/23 12:03:23;;;;;;;122.40;109.43;;;29.10;99.90;;;;;;5035055;28;20451;-88
2021/07/23 12:05:51;;;;;;;146.27;132.53;;;29.30;99.90;;;;;;5018185;28;20524;-87
2021/07/23 12:08:20;;;;;;;166.77;151.53;;;29.50;99.90;;;;;;5025232;28;20460;-87
2021/07/23 12:10:50;;;;;;;239.60;222.47;;;29.90;99.90;;;;;;5034389;28;20506;-87
2021/07/23 12:13:17;;;;;;;173.03;158.57;;;29.80;99.90;;;;;;5031231;28;20457;-87
2021/07/23 12:15:46;;;;;;;261.40;242.10;;;29.80;99.90;;;;;;5026438;28;20453;-87
2021/07/23 12:18:18;;;;;;;296.00;278.07;;;30.00;99.90;;;;;;5028596;28;20492;-87
2021/07/23 12:20:45;;;;;;;302.03;282.23;;;29.80;99.90;;;;;;5031225;28;20501;-87
2021/07/23 12:23:22;;;;;;;275.07;257.30;;;29.70;99.90;;;;;;5032107;28;20553;-87
2021/07/23 12:25:50;;;;;;;198.37;183.03;;;29.70;99.90;;;;;;5034290;28;20453;-87
2021/07/23 12:28:18;;;;;;;304.60;285.03;;;29.80;99.90;;;;;;5031553;28;20453;-88
2021/07/23 12:30:46;;;;;;;377.73;356.43;;;29.90;99.90;;;;;;5035183;28;20528;-87
2021/07/23 12:33:14;;;;;;;399.53;375.63;;;29.80;99.90;;;;;;5034792;28;20441;-87
2021/07/23 12:35:42;;;;;;;324.77;303.80;;;29.80;99.90;;;;;;5035092;28;20508;-88
2021/07/23 12:38:10;;;;;;;113.10;102.37;;;30.00;99.90;;;;;;5033924;28;20583;-87
2021/07/23 12:40:54;;;;;;;410.33;387.30;;;29.90;99.90;;;;;;5034233;28;20475;-87
2021/07/23 12:43:22;;;;;;;283.37;264.80;;;29.80;99.90;;;;;;5031067;28;20461;-87
2021/07/23 12:45:49;;;;;;;347.73;327.17;;;29.90;99.90;;;;;;5036349;28;20453;-87
2021/07/23 12:48:18;;;;;;;279.20;261.97;;;29.90;99.90;;;;;;5034677;28;20445;-89
2021/07/23 12:50:46;;;;;;;210.80;196.37;;;30.00;99.90;;;;;;5035933;28;20492;-87
2021/07/23 12:53:25;;;;;;;247.40;231.17;;;30.10;99.90;;;;;;5038318;28;20980;-87
2021/07/23 12:55:58;;;;;;;371.23;350.17;;;30.10;99.90;;;;;;5041499;28;20480;-88
2021/07/23 12:58:38;;;;;;;82.80;63.40;;;30.20;99.90;;;;;;5037921;28;20957;-87
2021/07/23 13:01:08;;;;;;;619.83;583.67;;;30.10;99.90;;;;;;5026789;28;20982;-86
2021/07/23 13:03:35;;;;;;;404.87;381.87;;;30.00;99.90;;;;;;5039973;28;20945;-86
2021/07/23 13:06:02;;;;;;;280.93;263.77;;;30.10;99.90;;;;;;5036562;28;20444;-88
2021/07/23 13:08:30;;;;;;;193.53;179.47;;;30.20;99.90;;;;;;5037366;28;20450;-88
2021/07/23 13:10:58;;;;;;;365.70;345.47;;;30.30;99.90;;;;;;5036242;28;20546;-87
2021/07/23 13:13:25;;;;;;;251.00;235.17;;;30.30;99.90;;;;;;5039680;28;20445;-86
2021/07/23 13:15:52;;;;;;;84.10;71.37;;;30.40;99.90;;;;;;5040739;28;20531;-87
2021/07/23 13:18:19;;;;;;;55.80;9.70;;;30.50;99.90;;;;;;5038765;28;20460;-88
2021/07/23 13:20:46;;;;;;;301.07;282.93;;;30.50;99.10;;;;;;5038416;28;20569;-87
2021/07/23 13:23:13;;;;;;;139.83;127.73;;;30.60;99.90;;;;;;5038546;28;21053;-87
2021/07/23 13:25:41;;;;;;;420.97;398.27;;;30.50;99.90;;;;;;5037978;28;20482;-87
2021/07/23 13:28:09;;;;;;;542.97;514.17;;;30.60;99.90;;;;;;5040006;28;20471;-87
2021/07/23 13:30:36;;;;;;;243.37;227.67;;;30.70;99.90;;;;;;5040362;28;20542;-87
2021/07/23 13:33:03;;;;;;;62.60;19.20;;;30.70;99.90;;;;;;5034007;28;20464;-87
2021/07/23 13:35:29;;;;;;;63.90;22.40;;;30.70;98.30;;;;;;5020203;28;20521;-87
2021/07/23 13:37:58;;;;;;;309.07;291.40;;;30.60;98.30;;;;;;5019629;28;20457;-87
2021/07/23 13:40:28;;;;;;;146.07;134.27;;;30.70;99.90;;;;;;5038116;28;20521;-87
2021/07/23 13:42:57;;;;;;;476.90;450.40;;;30.70;99.90;;;;;;5020778;28;20906;-87